Time;durP1;ratioP1;P1;durP2;ratioP2;P2;SDS_P1;SDS_P2;PMS_P1;PMS_P2;Temp;Humidity;BMP_temperature;BMP_pressure;BME280_temperature;BME280_humidity;BME280_pressure;Samples;Min_cycle;Max_cycle;Signal;HPM_P1;HPM_P2
2022/07/21 00:01:30;;;;;;;;;4.25;4.00;;;;;21.88;68.32;101430.91;5095170;27;45569;-85
2022/07/21 00:03:55;;;;;;;;;3.25;3.25;;;;;21.83;68.60;101419.31;5094758;27;45410;-85
2022/07/21 00:06:21;;;;;;;;;5.25;5.25;;;;;21.77;68.10;101403.25;5095053;27;48578;-85
2022/07/21 00:08:46;;;;;;;;;5.25;4.00;;;;;21.89;67.77;101416.63;5093474;27;45563;-87
2022/07/21 00:11:12;;;;;;;;;4.50;4.00;;;;;21.99;67.62;101436.25;5094927;27;45335;-85
2022/07/21 00:13:38;;;;;;;;;4.00;3.00;;;;;21.94;67.63;101417.50;5095119;27;45549;-85
2022/07/21 00:16:03;;;;;;;;;6.25;4.00;;;;;21.80;68.18;101393.44;5094822;27;45367;-84
2022/07/21 00:18:29;;;;;;;;;5.00;5.00;;;;;21.96;68.12;101422.84;5094393;27;45317;-85
2022/07/21 00:20:58;;;;;;;;;3.00;3.00;;;;;21.66;67.74;101378.28;5094808;27;45739;-84
2022/07/21 00:23:24;;;;;;;;;5.00;4.50;;;;;21.91;67.69;101428.22;5093362;27;45373;-84
2022/07/21 00:25:51;;;;;;;;;3.00;3.00;;;;;21.72;67.74;101394.31;5094062;27;46488;-83
2022/07/21 00:28:17;;;;;;;;;4.00;4.00;;;;;21.66;67.53;101394.34;5095248;27;45884;-84
2022/07/21 00:30:42;;;;;;;;;5.00;5.00;;;;;21.72;67.43;101410.38;5105167;27;45600;-85
2022/07/21 00:33:07;;;;;;;;;4.00;4.00;;;;;21.65;68.04;101406.81;5112012;27;45210;-85
2022/07/21 00:35:33;;;;;;;;;7.00;5.50;;;;;21.62;68.09;101396.13;5105161;27;45997;-84
2022/07/21 00:37:59;;;;;;;;;3.00;3.00;;;;;21.59;68.15;101402.38;5111845;27;45319;-85
2022/07/21 00:40:24;;;;;;;;;4.00;3.50;;;;;21.62;68.11;101407.75;5110538;27;44882;-85
2022/07/21 00:42:50;;;;;;;;;5.25;5.00;;;;;21.48;68.33;101385.44;5107840;27;44960;-83
2022/07/21 00:45:15;;;;;;;;;2.75;2.50;;;;;21.52;68.22;101397.91;5095795;27;46466;-83
2022/07/21 00:47:41;;;;;;;;;2.00;2.00;;;;;21.52;68.25;101405.91;5096295;27;45968;-83
2022/07/21 00:50:13;;;;;;;;;3.00;3.00;;;;;21.27;68.21;101380.03;5092678;27;45695;-84
2022/07/21 00:52:39;;;;;;;;;4.50;3.25;;;;;21.19;68.48;101368.47;5076652;27;45544;-84
2022/07/21 00:55:05;;;;;;;;;3.00;3.00;;;;;21.41;68.44;101415.72;5076107;27;45530;-84
2022/07/21 00:57:31;;;;;;;;;2.00;2.00;;;;;21.41;68.73;101407.72;5074874;28;46105;-84
2022/07/21 00:59:57;;;;;;;;;3.00;3.00;;;;;21.36;68.74;101404.16;5075992;27;45385;-83
2022/07/21 01:02:22;;;;;;;;;4.00;4.00;;;;;21.27;68.67;101388.94;5076469;27;45344;-85
2022/07/21 01:04:48;;;;;;;;;3.00;2.75;;;;;21.07;68.28;101370.19;5076329;27;45458;-85
2022/07/21 01:07:15;;;;;;;;;3.50;3.50;;;;;21.12;68.73;101387.13;5076653;28;45668;-85
2022/07/21 01:09:41;;;;;;;;;3.00;3.00;;;;;21.05;68.93;101387.16;5095465;27;45453;-85
2022/07/21 01:12:07;;;;;;;;;4.25;3.75;;;;;21.04;68.99;101388.94;5097319;27;45637;-84
2022/07/21 01:14:33;;;;;;;;;3.25;2.00;;;;;21.02;68.94;101403.16;5094977;27;48547;-84
2022/07/21 01:17:00;;;;;;;;;4.00;4.00;;;;;20.99;69.28;101401.41;5095970;27;45504;-84
2022/07/21 01:19:25;;;;;;;;;3.00;3.00;;;;;20.95;69.27;101407.63;5088372;27;45466;-83
2022/07/21 01:21:52;;;;;;;;;3.50;3.25;;;;;21.07;69.00;101430.78;5085112;27;45463;-86
2022/07/21 01:24:17;;;;;;;;;2.00;2.00;;;;;21.13;69.13;101438.81;5074335;28;47356;-84
2022/07/21 01:26:44;;;;;;;;;3.25;2.75;;;;;21.01;69.18;101418.31;5075764;27;45414;-84
2022/07/21 01:29:11;;;;;;;;;4.00;3.00;;;;;21.04;69.02;101422.78;5076078;27;45695;-84
2022/07/21 01:31:37;;;;;;;;;2.00;2.00;;;;;21.08;69.39;101430.81;5076714;28;45442;-86
2022/07/21 01:34:03;;;;;;;;;5.00;4.25;;;;;20.77;69.32;101386.19;5076968;27;45488;-84
2022/07/21 01:36:28;;;;;;;;;2.00;2.00;;;;;20.76;69.18;101379.94;5076524;27;45450;-87
2022/07/21 01:41:38;;;;;;;;;2.00;2.00;;;;;20.68;69.50;101373.69;5076798;28;45373;-87
2022/07/21 01:44:06;;;;;;;;;3.00;3.00;;;;;20.95;69.47;101417.41;5079790;27;47848;-84
2022/07/21 01:46:33;;;;;;;;;4.00;3.00;;;;;20.93;69.68;101414.72;5088353;27;45475;-84
2022/07/21 01:48:59;;;;;;;;;3.75;3.75;;;;;20.67;69.69;101376.34;5094073;27;45556;-85
2022/07/21 01:51:24;;;;;;;;;2.00;2.00;;;;;20.79;69.80;101396.00;5092785;27;45253;-87
2022/07/21 01:53:51;;;;;;;;;4.25;4.00;;;;;20.75;70.21;101394.19;5089905;27;47165;-83
2022/07/21 01:56:22;;;;;;;;;4.50;4.00;;;;;20.74;69.79;101388.81;5089994;27;45052;-87
2022/07/21 01:58:49;;;;;;;;;2.75;2.75;;;;;20.78;69.76;101395.97;5091465;27;45089;-87
2022/07/21 02:01:16;;;;;;;;;3.75;3.00;;;;;20.83;69.96;101402.22;5090842;27;44954;-84
2022/07/21 02:03:42;;;;;;;;;3.00;2.00;;;;;20.62;70.02;101365.66;5088662;28;47304;-85
2022/07/21 02:06:08;;;;;;;;;6.00;4.00;;;;;20.82;70.03;101406.66;5087668;27;45200;-87
2022/07/21 02:08:34;;;;;;;;;3.00;3.00;;;;;20.77;69.86;101380.84;5088696;27;45032;-87
2022/07/21 02:10:59;;;;;;;;;2.50;2.50;;;;;20.80;70.05;101395.09;5090176;27;45237;-84
2022/07/21 02:13:25;;;;;;;;;4.75;4.00;;;;;20.84;69.90;101409.38;5088043;28;47573;-87
2022/07/21 02:15:50;;;;;;;;;3.00;3.00;;;;;20.80;69.85;101408.47;5089408;28;45189;-85
2022/07/21 02:18:15;;;;;;;;;3.75;3.50;;;;;20.77;69.90;101399.53;5090476;27;45336;-84
2022/07/21 02:20:41;;;;;;;;;3.75;3.75;;;;;20.83;69.94;101420.91;5088640;28;45283;-85
2022/07/21 02:23:06;;;;;;;;;3.00;2.50;;;;;20.80;69.84;101412.91;5089964;27;45302;-87
2022/07/21 02:25:32;;;;;;;;;3.75;3.75;;;;;20.78;69.55;101414.66;5088408;28;44937;-87
2022/07/21 02:27:57;;;;;;;;;3.75;3.00;;;;;20.78;69.77;101407.53;5088717;28;44996;-86
2022/07/21 02:30:22;;;;;;;;;3.00;3.00;;;;;20.76;69.89;101400.44;5099703;27;46907;-84
2022/07/21 02:32:48;;;;;;;;;3.25;3.25;;;;;20.74;70.01;101395.09;5109780;27;45053;-85
2022/07/21 02:35:13;;;;;;;;;3.25;3.25;;;;;20.86;69.71;101410.25;5108419;27;45020;-87
2022/07/21 02:37:38;;;;;;;;;4.00;4.00;;;;;20.86;69.88;101424.50;5109402;27;45000;-84
2022/07/21 02:40:05;;;;;;;;;5.00;3.25;;;;;20.85;70.03;101421.84;5109001;27;44997;-85
2022/07/21 02:42:30;;;;;;;;;3.75;3.75;;;;;20.73;69.60;101406.63;5108096;27;47724;-86
2022/07/21 02:44:56;;;;;;;;;3.75;3.00;;;;;20.73;70.18;101411.97;5108025;27;52859;-84
2022/07/21 02:47:21;;;;;;;;;4.00;3.00;;;;;20.71;69.78;101412.88;5108843;27;45040;-87
2022/07/21 02:49:47;;;;;;;;;5.00;5.00;;;;;20.75;69.94;101420.03;5110716;27;48998;-85
2022/07/21 02:52:12;;;;;;;;;3.00;3.00;;;;;20.66;70.09;101404.84;5105947;27;47453;-85
2022/07/21 02:54:38;;;;;;;;;3.75;3.75;;;;;20.67;69.79;101416.41;5105941;27;44962;-86
2022/07/21 02:57:03;;;;;;;;;3.50;3.00;;;;;20.73;70.04;101427.13;5109918;27;45274;-84
2022/07/21 02:59:28;;;;;;;;;3.75;3.75;;;;;20.79;70.25;101449.44;5109523;27;45217;-84
2022/07/21 03:01:54;;;;;;;;;4.50;4.25;;;;;20.70;69.84;101427.13;5110082;27;45642;-84
2022/07/21 03:04:19;;;;;;;;;4.25;3.75;;;;;20.54;69.97;101402.09;5109271;27;45122;-85
2022/07/21 03:06:45;;;;;;;;;4.25;4.25;;;;;20.80;70.27;101440.53;5109748;27;44954;-84
2022/07/21 03:09:10;;;;;;;;;4.00;4.00;;;;;20.76;69.81;101436.06;5109586;27;44898;-85
2022/07/21 03:11:35;;;;;;;;;5.00;4.75;;;;;20.71;70.05;101429.78;5109467;27;45352;-84
2022/07/21 03:14:01;;;;;;;;;4.00;4.00;;;;;20.65;69.82;101420.88;5110004;27;45400;-84
2022/07/21 03:16:27;;;;;;;;;4.00;3.00;;;;;20.80;69.86;101444.97;5108468;27;45376;-87
2022/07/21 03:18:52;;;;;;;;;5.25;5.25;;;;;20.58;69.79;101406.59;5108854;27;44952;-88
2022/07/21 03:21:17;;;;;;;;;5.00;5.00;;;;;20.54;69.85;101403.03;5108902;27;45632;-88
2022/07/21 03:23:45;;;;;;;;;6.00;5.00;;;;;20.60;69.89;101416.41;5109402;27;45244;-87
2022/07/21 03:26:12;;;;;;;;;3.75;3.75;;;;;20.68;69.54;101436.91;5108596;27;45357;-87
2022/07/21 03:28:38;;;;;;;;;5.00;4.50;;;;;20.60;69.86;101428.88;5089399;27;45299;-88
2022/07/21 03:31:04;;;;;;;;;6.00;6.00;;;;;20.60;69.78;101427.09;5089142;27;45374;-87
2022/07/21 03:33:29;;;;;;;;;7.00;6.25;;;;;20.61;69.81;101441.34;5092278;27;45307;-87
2022/07/21 03:35:56;;;;;;;;;5.00;5.00;;;;;20.61;70.18;101436.88;5075465;27;45317;-88
2022/07/21 03:38:21;;;;;;;;;8.00;8.00;;;;;20.50;69.94;101427.03;5077364;27;45284;-88
2022/07/21 03:40:47;;;;;;;;;10.75;10.25;;;;;20.61;69.98;101446.66;5097143;27;45606;-87
2022/07/21 03:43:12;;;;;;;;;9.25;9.25;;;;;20.66;70.16;101463.63;5097219;27;45656;-88
2022/07/21 03:45:37;;;;;;;;;10.25;9.50;;;;;20.62;69.66;101456.47;5096511;27;45762;-87
2022/07/21 03:48:06;;;;;;;;;11.75;11.50;;;;;20.65;70.01;101469.84;5122337;27;45583;-87
2022/07/21 03:50:32;;;;;;;;;10.75;10.25;;;;;20.57;69.77;101463.56;5104129;27;45696;-86
2022/07/21 03:52:58;;;;;;;;;10.00;10.00;;;;;20.55;70.06;101463.56;5089164;28;45642;-85
2022/07/21 03:55:24;;;;;;;;;11.00;10.00;;;;;20.57;69.65;101463.56;5088881;27;44987;-87
2022/07/21 03:57:56;;;;;;;;;12.75;10.75;;;;;20.49;70.25;101451.94;5104616;27;45378;-86
2022/07/21 04:00:26;;;;;;;;;14.50;14.50;;;;;20.62;69.84;101467.16;5090238;27;45401;-85
2022/07/21 04:02:52;;;;;;;;;12.25;11.25;;;;;20.46;69.86;101450.13;5091205;28;45445;-84
2022/07/21 04:05:18;;;;;;;;;13.25;11.75;;;;;20.68;70.00;101483.19;5105569;27;45058;-85
2022/07/21 04:07:47;;;;;;;;;13.00;12.25;;;;;20.57;69.71;101466.22;5111539;27;45130;-84
2022/07/21 04:10:14;;;;;;;;;14.00;13.50;;;;;20.48;69.82;101439.47;5096662;27;46194;-84
2022/07/21 04:12:40;;;;;;;;;19.25;18.50;;;;;20.58;69.70;101476.91;5090009;28;45558;-85
2022/07/21 04:15:06;;;;;;;;;15.00;14.50;;;;;20.53;69.83;101470.66;5089943;27;45272;-85
2022/07/21 04:17:32;;;;;;;;;16.75;14.50;;;;;20.47;69.72;101457.28;5091765;27;44994;-85
2022/07/21 04:19:57;;;;;;;;;16.50;15.75;;;;;20.58;69.87;101474.25;5093275;27;46850;-84
2022/07/21 04:22:23;;;;;;;;;14.75;13.75;;;;;20.49;69.69;101452.88;5091318;27;45052;-85
2022/07/21 04:24:48;;;;;;;;;17.00;16.00;;;;;20.66;69.52;101479.66;5092782;27;45132;-85
2022/07/21 04:27:13;;;;;;;;;16.50;16.00;;;;;20.62;69.68;101464.47;5091263;27;45279;-85
2022/07/21 04:29:39;;;;;;;;;14.50;14.00;;;;;20.61;69.38;101476.94;5090050;28;47480;-84
2022/07/21 04:32:05;;;;;;;;;14.75;14.50;;;;;20.63;69.84;101476.06;5095050;27;45573;-84
2022/07/21 04:34:30;;;;;;;;;17.00;16.25;;;;;20.63;69.67;101479.63;5079614;27;45358;-84
2022/07/21 04:36:55;;;;;;;;;14.00;12.75;;;;;20.64;69.49;101480.50;5076327;27;45386;-83
2022/07/21 04:39:21;;;;;;;;;18.50;17.25;;;;;20.66;69.40;101490.31;5076036;27;46538;-86
2022/07/21 04:41:46;;;;;;;;;17.00;17.00;;;;;20.51;69.74;101463.53;5076268;27;45381;-83
2022/07/21 04:44:12;;;;;;;;;15.50;14.50;;;;;20.67;69.41;101483.19;5092035;27;45424;-83
2022/07/21 04:46:37;;;;;;;;;16.25;16.25;;;;;20.67;69.44;101478.75;5075938;27;45639;-83
2022/07/21 04:49:03;;;;;;;;;17.00;16.25;;;;;20.58;69.50;101476.91;5091609;27;47018;-83
2022/07/21 04:51:28;;;;;;;;;16.50;15.50;;;;;20.67;69.81;101489.44;5074540;27;45362;-83
2022/07/21 04:53:53;;;;;;;;;16.00;15.50;;;;;20.72;70.15;101497.47;5076126;27;45513;-85
2022/07/21 04:56:18;;;;;;;;;18.00;17.50;;;;;20.82;69.59;101513.56;5075796;27;47936;-83
2022/07/21 04:58:44;;;;;;;;;20.50;19.25;;;;;20.79;69.44;101500.19;5075892;28;46648;-83
2022/07/21 05:01:09;;;;;;;;;15.50;15.00;;;;;20.85;69.15;101499.31;5075983;27;45397;-84
2022/07/21 05:03:34;;;;;;;;;18.75;17.75;;;;;20.77;69.23;101495.72;5076042;27;45558;-84
2022/07/21 05:06:00;;;;;;;;;19.75;19.75;;;;;20.71;69.30;101467.19;5076572;27;45557;-85
2022/07/21 05:08:27;;;;;;;;;18.75;18.50;;;;;20.75;69.24;101474.34;5092577;27;47083;-86
2022/07/21 05:10:52;;;;;;;;;21.50;21.00;;;;;20.81;69.21;101492.19;5079011;27;45811;-84
2022/07/21 05:13:18;;;;;;;;;21.00;18.50;;;;;20.72;69.21;101470.75;5086904;27;45416;-87
2022/07/21 05:15:43;;;;;;;;;17.00;16.00;;;;;20.94;69.04;101498.47;5107667;27;45137;-84
2022/07/21 05:18:08;;;;;;;;;26.25;23.75;;;;;20.84;68.79;101481.53;5091671;27;45150;-86
2022/07/21 05:20:34;;;;;;;;;16.75;16.75;;;;;20.95;69.14;101498.47;5089073;28;45086;-85
2022/07/21 05:22:59;;;;;;;;;17.50;17.25;;;;;20.94;68.86;101498.47;5091103;27;44929;-87
2022/07/21 05:25:25;;;;;;;;;20.50;19.00;;;;;20.83;68.95;101477.91;5103584;27;45298;-87
2022/07/21 05:27:50;;;;;;;;;20.00;19.25;;;;;20.89;68.94;101494.91;5109875;27;47181;-87
2022/07/21 05:30:15;;;;;;;;;23.25;20.75;;;;;20.84;69.04;101482.41;5110350;27;45514;-87
2022/07/21 05:32:41;;;;;;;;;18.75;18.50;;;;;20.96;68.95;101502.03;5112573;27;45422;-85
2022/07/21 05:35:10;;;;;;;;;19.50;18.50;;;;;20.90;68.96;101480.66;5111855;27;45372;-84
2022/07/21 05:37:37;;;;;;;;;20.00;19.50;;;;;20.85;68.79;101488.63;5111019;27;45513;-85
2022/07/21 05:40:03;;;;;;;;;20.50;18.50;;;;;20.98;69.14;101502.94;5111691;27;45368;-85
2022/07/21 05:42:28;;;;;;;;;19.25;18.00;;;;;20.93;68.81;101491.31;5098060;27;45492;-85
2022/07/21 05:44:55;;;;;;;;;20.00;19.00;;;;;21.08;69.14;101507.41;5110080;27;45085;-85
2022/07/21 05:47:20;;;;;;;;;19.75;19.00;;;;;21.08;68.89;101486.97;5109602;27;47861;-85
2022/07/21 05:49:45;;;;;;;;;19.50;19.00;;;;;21.25;68.70;101504.81;5109873;27;45116;-85
2022/07/21 05:52:11;;;;;;;;;20.25;18.50;;;;;21.18;68.77;101490.56;5106404;27;44988;-84
2022/07/21 05:54:36;;;;;;;;;20.00;19.00;;;;;21.29;68.40;101503.94;5105809;27;45269;-84
2022/07/21 05:57:02;;;;;;;;;17.00;17.00;;;;;21.34;68.46;101510.22;5102457;27;46586;-85
2022/07/21 05:59:28;;;;;;;;;19.75;18.00;;;;;21.32;68.56;101487.91;5106600;27;45148;-85
2022/07/21 06:01:53;;;;;;;;;19.75;18.00;;;;;21.53;68.51;101516.53;5096250;27;45604;-84
2022/07/21 06:04:18;;;;;;;;;17.50;17.00;;;;;21.52;68.44;101507.56;5098757;27;45608;-86
2022/07/21 06:06:44;;;;;;;;;20.75;20.00;;;;;21.61;68.08;101507.59;5090374;27;45590;-87
2022/07/21 06:09:09;;;;;;;;;22.25;21.00;;;;;21.60;67.75;101505.81;5112278;27;45294;-87
2022/07/21 06:11:34;;;;;;;;;19.00;17.25;;;;;21.72;67.75;101510.28;5111715;27;45122;-87
2022/07/21 06:14:00;;;;;;;;;22.50;19.75;;;;;21.88;67.49;101527.25;5112328;27;45154;-86
2022/07/21 06:16:25;;;;;;;;;19.25;18.25;;;;;21.92;68.03;101518.34;5112361;27;45506;-85
2022/07/21 06:18:50;;;;;;;;;20.00;18.00;;;;;21.92;67.54;101506.72;5118936;27;45184;-85
2022/07/21 06:21:17;;;;;;;;;19.75;18.50;;;;;22.00;67.06;101502.25;5113198;27;45145;-87
2022/07/21 06:23:43;;;;;;;;;21.50;18.00;;;;;22.06;66.79;101505.81;5111007;27;45182;-85
2022/07/21 06:26:08;;;;;;;;;18.50;16.75;;;;;22.09;67.10;101505.84;5108495;27;47738;-83
2022/07/21 06:28:33;;;;;;;;;20.33;19.33;;;;;22.25;66.92;101528.16;5110793;27;47843;-83
2022/07/21 06:30:59;;;;;;;;;22.25;21.00;;;;;22.15;66.54;101518.34;5110658;27;45224;-86
2022/07/21 06:33:24;;;;;;;;;20.75;20.00;;;;;22.27;66.35;101533.53;5102678;27;45243;-83
2022/07/21 06:35:50;;;;;;;;;16.50;15.25;;;;;22.22;66.88;101530.88;5108089;27;47806;-86
2022/07/21 06:38:15;;;;;;;;;20.75;17.50;;;;;22.14;66.87;101503.19;5098264;27;45661;-86
2022/07/21 06:40:41;;;;;;;;;19.25;17.75;;;;;22.39;66.89;101529.03;5110706;27;45257;-83
2022/07/21 06:43:06;;;;;;;;;20.75;20.25;;;;;22.46;66.19;101537.06;5133286;27;45545;-86
2022/07/21 06:45:32;;;;;;;;;18.50;18.00;;;;;22.47;65.67;101526.38;5130946;27;45267;-83
2022/07/21 06:48:01;;;;;;;;;21.75;20.75;;;;;22.25;65.43;101495.13;5108084;27;45171;-83
2022/07/21 06:50:27;;;;;;;;;21.00;19.00;;;;;22.29;65.93;101502.28;5113098;27;45070;-86
2022/07/21 06:52:52;;;;;;;;;21.75;20.75;;;;;22.63;65.86;101549.53;5113047;27;45082;-87
2022/07/21 06:55:18;;;;;;;;;23.50;21.00;;;;;22.65;65.90;101537.00;5112605;27;46041;-86
2022/07/21 06:57:43;;;;;;;;;18.25;17.25;;;;;22.46;65.19;101505.81;5106531;27;45679;-86
2022/07/21 07:00:09;;;;;;;;;19.50;18.75;;;;;22.66;64.92;101530.78;5114063;27;45141;-86
2022/07/21 07:02:35;;;;;;;;;21.75;20.00;;;;;22.71;65.31;101544.19;5091765;27;45157;-86
2022/07/21 07:05:00;;;;;;;;;19.25;15.75;;;;;22.68;65.03;101522.72;5090351;27;49564;-83
2022/07/21 07:07:25;;;;;;;;;21.75;21.25;;;;;22.72;64.30;101534.34;5098497;27;45106;-86
2022/07/21 07:09:51;;;;;;;;;19.75;18.75;;;;;22.50;64.63;101512.94;5112483;27;45065;-86
2022/07/21 07:12:16;;;;;;;;;20.00;18.25;;;;;22.60;64.56;101528.09;5112609;27;45133;-86
2022/07/21 07:14:42;;;;;;;;;17.50;17.25;;;;;22.54;65.18;101521.88;5104749;27;47110;-84
2022/07/21 07:17:07;;;;;;;;;18.00;16.75;;;;;22.67;64.80;101540.59;5109624;27;45057;-85
2022/07/21 07:19:33;;;;;;;;;18.25;17.50;;;;;22.70;64.16;101530.75;5112662;27;45166;-82
2022/07/21 07:21:58;;;;;;;;;20.00;19.25;;;;;22.76;64.30;101545.06;5111651;27;45087;-85
2022/07/21 07:24:23;;;;;;;;;18.00;18.00;;;;;22.74;64.56;101532.53;5108801;27;47180;-86
2022/07/21 07:26:49;;;;;;;;;21.25;18.25;;;;;22.82;64.03;101536.09;5110704;27;45178;-85
2022/07/21 07:29:14;;;;;;;;;18.00;17.00;;;;;22.96;64.48;101554.84;5111325;27;45151;-86
2022/07/21 07:31:40;;;;;;;;;19.00;17.25;;;;;23.01;64.25;101553.94;5108774;27;45587;-84
2022/07/21 07:34:05;;;;;;;;;18.75;17.50;;;;;22.98;64.34;101529.81;5109582;27;45402;-84
2022/07/21 07:36:32;;;;;;;;;18.25;17.50;;;;;23.17;63.86;101555.66;5103664;27;45253;-83
2022/07/21 07:38:57;;;;;;;;;17.75;16.75;;;;;22.98;64.13;101515.50;5109610;27;46038;-84
2022/07/21 07:41:25;;;;;;;;;19.25;18.25;;;;;23.16;63.71;101543.16;5110500;27;45051;-83
2022/07/21 07:43:51;;;;;;;;;19.75;19.00;;;;;23.33;63.56;101564.50;5108401;27;45221;-83
2022/07/21 07:46:17;;;;;;;;;21.00;20.00;;;;;23.34;63.81;101558.25;5106211;27;45193;-85
2022/07/21 07:48:42;;;;;;;;;18.50;17.00;;;;;23.30;63.54;101547.53;5107206;27;45034;-84
2022/07/21 07:51:09;;;;;;;;;19.25;18.75;;;;;23.38;63.02;101562.69;5092862;27;45463;-84
2022/07/21 07:53:34;;;;;;;;;16.75;16.50;;;;;23.43;63.92;101570.72;5103921;27;47092;-84
2022/07/21 07:56:00;;;;;;;;;18.25;17.50;;;;;23.43;63.73;101563.56;5105323;27;45174;-84
2022/07/21 07:58:26;;;;;;;;;20.50;20.25;;;;;23.51;63.30;101571.59;5105377;27;45135;-85
2022/07/21 08:00:51;;;;;;;;;20.75;19.25;;;;;23.35;63.14;101545.72;5101867;27;45091;-84
2022/07/21 08:03:16;;;;;;;;;21.50;18.00;;;;;23.37;63.16;101538.56;5109950;27;45413;-83
2022/07/21 08:05:42;;;;;;;;;15.75;14.75;;;;;23.53;63.58;101564.41;5099235;27;45168;-84
2022/07/21 08:08:07;;;;;;;;;19.50;16.25;;;;;23.44;63.60;101551.94;5124390;27;45251;-84
2022/07/21 08:10:33;;;;;;;;;20.00;19.25;;;;;23.48;62.35;101543.88;5107629;27;45404;-84
2022/07/21 08:12:58;;;;;;;;;21.00;20.00;;;;;23.52;62.87;101548.31;5106682;27;45874;-84
2022/07/21 08:15:24;;;;;;;;;18.25;16.75;;;;;23.41;62.91;101524.25;5119906;27;45066;-84
2022/07/21 08:17:50;;;;;;;;;15.50;15.25;;;;;23.72;62.90;101564.34;5125157;27;45335;-84
2022/07/21 08:20:15;;;;;;;;;19.75;19.25;;;;;23.91;62.64;101576.72;5110198;27;44995;-84
2022/07/21 08:22:40;;;;;;;;;17.75;16.00;;;;;23.99;62.09;101591.00;5108153;27;45789;-84
2022/07/21 08:25:06;;;;;;;;;20.75;18.50;;;;;23.98;61.56;101577.56;5094628;27;45783;-84
2022/07/21 08:27:31;;;;;;;;;20.25;18.25;;;;;24.01;61.48;101582.94;5086878;28;44936;-84
2022/07/21 08:29:56;;;;;;;;;17.75;17.25;;;;;23.99;61.55;101584.72;5104482;27;45139;-84
2022/07/21 08:32:22;;;;;;;;;17.75;17.50;;;;;23.94;61.36;101580.28;5102910;27;45276;-84
2022/07/21 08:34:48;;;;;;;;;20.50;20.00;;;;;23.91;61.59;101558.81;5109468;27;45178;-84
2022/07/21 08:37:14;;;;;;;;;19.50;19.50;;;;;24.24;61.50;101596.19;5100199;27;45539;-84
2022/07/21 08:39:40;;;;;;;;;18.75;18.75;;;;;24.11;61.69;101550.59;5103295;27;45610;-84
2022/07/21 08:42:08;;;;;;;;;19.25;18.25;;;;;24.38;61.17;101592.50;5105105;27;45187;-83
2022/07/21 08:44:34;;;;;;;;;17.50;16.50;;;;;24.40;61.43;101592.50;5097078;27;45517;-84
2022/07/21 08:46:59;;;;;;;;;17.50;17.25;;;;;24.22;61.51;101549.63;5100717;27;45165;-83
2022/07/21 08:49:25;;;;;;;;;20.75;20.25;;;;;24.37;61.05;101577.28;5093872;27;44922;-83
2022/07/21 08:51:54;;;;;;;;;19.50;19.25;;;;;24.51;60.65;101595.97;5109585;27;47460;-84
2022/07/21 08:54:21;;;;;;;;;20.50;19.50;;;;;24.62;59.97;101602.13;5093284;28;45635;-84
2022/07/21 08:56:47;;;;;;;;;17.75;17.00;;;;;24.44;60.18;101575.44;5094804;27;45808;-84
2022/07/21 08:59:12;;;;;;;;;21.25;20.00;;;;;24.47;60.05;101575.38;5101317;27;45418;-84
2022/07/21 09:01:37;;;;;;;;;17.00;16.75;;;;;24.60;59.84;101585.13;5107020;27;45194;-85
2022/07/21 09:04:23;;;;;;;;;18.00;16.75;;;;;24.76;59.73;101604.69;5110829;27;45477;-84
2022/07/21 09:06:57;;;;;;;;;18.00;17.75;;;;;24.73;59.31;101598.44;5113620;27;45083;-84
2022/07/21 09:09:25;;;;;;;;;21.50;21.25;;;;;24.69;59.86;101589.53;5112611;27;45098;-83
2022/07/21 09:11:54;;;;;;;;;21.00;21.00;;;;;24.70;59.17;101594.88;5111304;27;47363;-85
2022/07/21 09:14:22;;;;;;;;;19.75;18.75;;;;;24.69;59.39;101594.91;5112747;27;45159;-85
2022/07/21 09:16:53;;;;;;;;;19.25;19.00;;;;;24.83;59.70;101602.84;5103567;27;45464;-83
2022/07/21 09:19:23;;;;;;;;;19.75;19.50;;;;;24.85;58.99;101601.91;5108517;27;45306;-83
2022/07/21 09:21:51;;;;;;;;;18.75;18.25;;;;;24.73;58.58;101568.84;5112162;27;45913;-83
2022/07/21 09:24:21;;;;;;;;;24.25;23.00;;;;;25.04;58.77;101607.97;5108051;27;45543;-84
2022/07/21 09:27:02;;;;;;;;;19.75;19.50;;;;;25.00;58.75;101595.44;5112129;27;45297;-83
2022/07/21 09:29:53;;;;;;;;;18.50;18.00;;;;;24.97;57.90;101608.94;5110949;27;46093;-84
2022/07/21 09:32:20;;;;;;;;;27.25;23.00;;;;;24.80;57.91;101613.59;5112132;27;45625;-84
2022/07/21 09:35:12;;;;;;;;;23.25;22.50;;;;;24.64;58.60;101618.25;5106020;27;45666;-83
2022/07/21 09:37:38;;;;;;;;;19.00;18.50;;;;;24.56;59.09;101614.72;5108037;27;45060;-83
2022/07/21 09:40:09;;;;;;;;;18.75;18.25;;;;;24.49;59.15;101591.53;5097129;27;45121;-83
2022/07/21 09:42:40;;;;;;;;;23.50;23.50;;;;;24.60;59.08;101601.25;5108861;27;47394;-84
2022/07/21 09:45:09;;;;;;;;;22.50;21.50;;;;;24.39;58.93;101580.84;5112150;27;45231;-83
2022/07/21 09:47:38;;;;;;;;;22.00;22.00;;;;;24.46;58.51;101608.56;5107452;27;45142;-83
2022/07/21 09:50:05;;;;;;;;;21.25;20.50;;;;;24.38;58.91;101608.63;5107243;27;45243;-84
2022/07/21 09:52:35;;;;;;;;;21.75;20.25;;;;;24.30;58.86;101602.41;5112424;27;45509;-83
2022/07/21 09:55:07;;;;;;;;;20.75;20.50;;;;;24.38;58.72;101605.03;5109857;27;45678;-84
2022/07/21 09:57:32;;;;;;;;;20.50;20.50;;;;;24.45;59.42;101593.34;5107517;27;45317;-84
2022/07/21 09:59:58;;;;;;;;;17.75;17.75;;;;;24.53;58.53;101587.88;5106078;27;45514;-84
2022/07/21 10:02:25;;;;;;;;;17.00;16.50;;;;;24.57;58.41;101592.31;5104229;27;45583;-84
2022/07/21 10:04:57;;;;;;;;;18.25;18.25;;;;;24.53;58.97;101583.41;5105369;27;45371;-84
2022/07/21 10:07:22;;;;;;;;;24.00;21.75;;;;;24.64;58.50;101592.25;5106143;27;45626;-84
2022/07/21 10:09:48;;;;;;;;;20.00;18.50;;;;;24.63;58.53;101581.50;5107250;27;45317;-83
2022/07/21 10:12:17;;;;;;;;;21.50;21.00;;;;;24.62;58.51;101579.72;5106468;27;45736;-84
2022/07/21 10:14:44;;;;;;;;;21.75;20.75;;;;;24.49;59.12;101565.53;5102302;27;45620;-84
2022/07/21 10:17:09;;;;;;;;;21.75;21.25;;;;;24.66;59.11;101551.91;5109986;27;45119;-84
2022/07/21 10:19:44;;;;;;;;;21.75;20.75;;;;;24.84;58.25;101562.47;5103744;27;45491;-84
2022/07/21 10:22:36;;;;;;;;;24.00;21.75;;;;;24.94;58.42;101555.19;5093216;27;46728;-84
2022/07/21 10:25:03;;;;;;;;;18.50;18.50;;;;;25.19;57.71;101570.16;5103090;27;45195;-85
2022/07/21 10:27:28;;;;;;;;;24.75;23.00;;;;;25.16;57.79;101563.91;5121681;27;45362;-85
2022/07/21 10:30:04;;;;;;;;;26.25;23.75;;;;;25.09;57.58;101554.16;5110212;27;45354;-84
2022/07/21 10:32:35;;;;;;;;;19.00;18.00;;;;;25.07;56.79;101575.66;5099421;27;45683;-83
2022/07/21 10:35:23;;;;;;;;;24.00;23.50;;;;;25.12;57.08;101597.13;5110569;27;45136;-84
2022/07/21 10:37:49;;;;;;;;;19.00;18.25;;;;;25.07;56.93;101593.59;5101576;27;45600;-84
2022/07/21 10:40:20;;;;;;;;;20.75;20.50;;;;;25.12;57.70;101592.66;5113802;27;45122;-84
2022/07/21 10:43:05;;;;;;;;;23.50;22.25;;;;;25.05;57.26;101569.38;5107261;27;46040;-85
2022/07/21 10:45:39;;;;;;;;;20.75;20.50;;;;;25.05;56.41;101563.13;5105818;27;45663;-84
2022/07/21 10:48:08;;;;;;;;;18.00;17.50;;;;;25.16;56.73;101580.03;5111140;27;45093;-84
2022/07/21 10:50:36;;;;;;;;;21.00;20.50;;;;;25.30;56.86;101583.47;5112605;27;45201;-84
2022/07/21 10:53:11;;;;;;;;;19.50;18.00;;;;;25.28;56.25;101562.88;5115055;27;46585;-83
2022/07/21 10:55:37;;;;;;;;;26.50;24.00;;;;;25.52;56.48;101577.78;5105330;27;45501;-82
2022/07/21 10:58:25;;;;;;;;;22.00;21.00;;;;;25.55;56.25;101575.94;5112130;27;45186;-83
2022/07/21 11:00:55;;;;;;;;;19.75;19.00;;;;;25.76;55.99;101576.56;5112039;27;45200;-84
2022/07/21 11:03:26;;;;;;;;;19.50;17.75;;;;;25.95;56.04;101575.38;5105799;27;45986;-83
2022/07/21 11:06:14;;;;;;;;;21.25;19.75;;;;;26.09;55.02;101576.03;5109424;27;45242;-82
2022/07/21 11:08:45;;;;;;;;;18.25;17.50;;;;;25.95;55.06;101556.53;5104025;27;45425;-84
2022/07/21 11:11:26;;;;;;;;;18.25;18.00;;;;;25.83;54.90;101540.56;5114841;27;45148;-83
2022/07/21 11:14:05;;;;;;;;;19.00;18.50;;;;;25.98;55.10;101565.44;5102747;27;47152;-84
2022/07/21 11:16:54;;;;;;;;;18.50;17.50;;;;;26.13;54.91;101561.63;5109329;27;45706;-84